createdAt,value
2022-12-17T00:00:33.170Z,52.98
2022-12-17T00:01:33.020Z,52.7
2022-12-17T00:02:33.362Z,53.08
2022-12-17T00:03:33.383Z,52.61
2022-12-17T00:04:33.148Z,52.89
2022-12-17T00:05:32.809Z,53.15
2022-12-17T00:06:32.826Z,52.77
2022-12-17T00:07:32.881Z,53.06
2022-12-17T00:08:33.127Z,53.15
2022-12-17T00:09:33.120Z,53.06
2022-12-17T00:10:33.133Z,53.06
2022-12-17T00:11:33.150Z,53.06
2022-12-17T00:12:33.163Z,53.15
2022-12-17T00:13:33.394Z,53.25
2022-12-17T00:14:33.201Z,53.72
2022-12-17T00:15:33.200Z,53.25
2022-12-17T00:16:33.410Z,53.72
2022-12-17T00:17:32.976Z,53.34
2022-12-17T00:18:32.977Z,53.72
2022-12-17T00:19:32.996Z,53.72
2022-12-17T00:20:33.335Z,53.53
2022-12-17T00:21:33.288Z,53.53
2022-12-17T00:22:33.294Z,53.63
2022-12-17T00:23:33.715Z,53.25
2022-12-17T00:24:33.066Z,53.72
2022-12-17T00:25:33.083Z,53.53
2022-12-17T00:26:33.352Z,53.63
2022-12-17T00:27:33.369Z,53.63
2022-12-17T00:28:33.384Z,53.72
2022-12-17T00:29:33.133Z,53.72
2022-12-17T00:30:33.402Z,54.19
2022-12-17T00:31:33.527Z,54.19
2022-12-17T00:32:33.427Z,54
2022-12-17T00:33:33.772Z,54.19
2022-12-17T00:34:33.193Z,54.1
2022-12-17T00:35:33.473Z,54
2022-12-17T00:36:33.524Z,54
2022-12-17T00:37:33.498Z,54
2022-12-17T00:38:33.505Z,54.1
2022-12-17T00:39:33.521Z,54.1
2022-12-17T00:40:33.276Z,53.88
2022-12-17T00:41:33.551Z,53.91
2022-12-17T00:42:33.560Z,54.1
2022-12-17T00:43:34.062Z,54
2022-12-17T00:44:33.327Z,54.1
2022-12-17T00:45:33.604Z,54.07
2022-12-17T00:46:33.484Z,54
2022-12-17T00:47:33.380Z,53.78
2022-12-17T00:48:34.023Z,53.88
2022-12-17T00:49:33.393Z,54.07
2022-12-17T00:50:33.669Z,54.07
2022-12-17T00:51:33.684Z,53.69
2022-12-17T00:52:33.751Z,54.07
2022-12-17T00:53:33.973Z,53.69
2022-12-17T00:54:33.738Z,53.69
2022-12-17T00:55:33.736Z,53.97
2022-12-17T00:56:33.746Z,54.07
2022-12-17T00:57:33.765Z,53.78
2022-12-17T00:58:33.777Z,53.78
2022-12-17T00:59:33.787Z,53.69
2022-12-17T01:00:33.983Z,53.78
2022-12-17T01:01:34.151Z,53.88
2022-12-17T01:02:34.064Z,53.59
2022-12-17T01:03:34.113Z,53.69
2022-12-17T01:04:33.590Z,53.88
2022-12-17T01:05:33.861Z,53.69
2022-12-17T01:06:33.875Z,53.78
2022-12-17T01:07:33.891Z,53.97
2022-12-17T01:08:33.955Z,54.07
2022-12-17T01:09:33.658Z,54.07
2022-12-17T01:10:33.934Z,53.78
2022-12-17T01:11:33.938Z,53.69
2022-12-17T01:12:33.967Z,54.07
2022-12-17T01:13:34.253Z,54.07
2022-12-17T01:14:34.005Z,54.16
2022-12-17T01:15:33.993Z,54.07
2022-12-17T01:16:34.192Z,54.16
2022-12-17T01:17:34.030Z,54.16
2022-12-17T01:18:34.032Z,54.07
2022-12-17T01:19:34.047Z,53.78
2022-12-17T01:20:33.804Z,53.97
2022-12-17T01:21:34.079Z,54.16
2022-12-17T01:22:34.089Z,53.88
2022-12-17T01:23:34.341Z,53.97
2022-12-17T01:24:34.162Z,54.16
2022-12-17T01:25:34.129Z,54.16
2022-12-17T01:26:34.143Z,54.26
2022-12-17T01:27:34.152Z,54.35
2022-12-17T01:28:34.161Z,54.35
2022-12-17T01:29:34.180Z,54.35
2022-12-17T01:30:34.183Z,54.55
2022-12-17T01:31:37.644Z,54.64
2022-12-17T01:32:34.214Z,54.42
2022-12-17T01:33:34.264Z,54.33
2022-12-17T01:34:34.269Z,54.26
2022-12-17T01:35:34.247Z,54.42
2022-12-17T01:36:34.271Z,54.33
2022-12-17T01:37:34.277Z,54.42
2022-12-17T01:38:34.302Z,54.42
2022-12-17T01:39:34.313Z,54.52
2022-12-17T01:40:34.387Z,54.42
2022-12-17T01:41:34.331Z,54.42
2022-12-17T01:42:34.344Z,54.33
2022-12-17T01:43:34.785Z,54.42
2022-12-17T01:44:34.365Z,54.52
2022-12-17T01:45:34.222Z,54.33
2022-12-17T01:46:34.143Z,54.33
2022-12-17T01:47:34.405Z,54.42
2022-12-17T01:48:34.419Z,54.42
2022-12-17T01:49:34.426Z,54.61
2022-12-17T01:50:34.445Z,54.71
2022-12-17T01:51:34.231Z,54.52
2022-12-17T01:52:34.469Z,54.61
2022-12-17T01:53:35.114Z,54.61
2022-12-17T01:54:34.500Z,54.9
2022-12-17T01:55:34.248Z,55.18
2022-12-17T01:56:34.566Z,55.18
2022-12-17T01:57:34.529Z,54.8
2022-12-17T01:58:34.556Z,55.08
2022-12-17T01:59:34.303Z,55.08
2022-12-17T02:00:34.613Z,54.71
2022-12-17T02:01:34.915Z,54.61
2022-12-17T02:02:34.709Z,54.61
2022-12-17T02:03:35.249Z,54.99
2022-12-17T02:04:34.622Z,54.8
2022-12-17T02:05:34.379Z,54.9
2022-12-17T02:06:34.647Z,55.08
2022-12-17T02:07:34.875Z,55.08
2022-12-17T02:08:34.677Z,54.61
2022-12-17T02:09:34.687Z,55.27
2022-12-17T02:10:34.439Z,54.99
2022-12-17T02:11:34.711Z,54.9
2022-12-17T02:12:35.126Z,55.27
2022-12-17T02:13:35.129Z,55.27
2022-12-17T02:14:34.747Z,54.99
2022-12-17T02:15:34.767Z,54.8
2022-12-17T02:16:34.716Z,54.8
2022-12-17T02:17:34.788Z,54.71
2022-12-17T02:18:34.795Z,54.71
2022-12-17T02:19:34.815Z,54.8
2022-12-17T02:20:34.824Z,54.8
2022-12-17T02:21:34.849Z,54.71
2022-12-17T02:22:34.854Z,54.71
2022-12-17T02:23:35.396Z,54.8
2022-12-17T02:24:34.619Z,54.8
2022-12-17T02:25:34.897Z,54.52
2022-12-17T02:26:34.909Z,54.52
2022-12-17T02:27:34.937Z,54.52
2022-12-17T02:28:35.036Z,54.52
2022-12-17T02:29:34.941Z,54.8
2022-12-17T02:30:34.698Z,54.71
2022-12-17T02:31:35.091Z,54.52
2022-12-17T02:32:34.713Z,54.61
2022-12-17T02:33:35.287Z,54.52
2022-12-17T02:34:34.757Z,54.61
2022-12-17T02:35:35.020Z,54.52
2022-12-17T02:36:35.025Z,54.52
2022-12-17T02:37:34.791Z,54.52
2022-12-17T02:38:35.048Z,54.61
2022-12-17T02:39:35.069Z,54.42
2022-12-17T02:40:34.819Z,54.71
2022-12-17T02:41:35.093Z,55.08
2022-12-17T02:42:34.844Z,54.61
2022-12-17T02:43:35.815Z,55.08
2022-12-17T02:44:35.174Z,54.71
2022-12-17T02:45:34.985Z,55.08
2022-12-17T02:46:35.157Z,54.9
2022-12-17T02:47:35.173Z,55.08
2022-12-17T02:48:34.922Z,54.8
2022-12-17T02:49:35.194Z,55.18
2022-12-17T02:50:35.208Z,55.18
2022-12-17T02:51:34.956Z,55.18
2022-12-17T02:52:37.288Z,55.18
2022-12-17T02:53:36.098Z,55.08
2022-12-17T02:54:35.253Z,54.99
2022-12-17T02:55:35.261Z,55.08
2022-12-17T02:56:35.018Z,54.9
2022-12-17T02:57:35.031Z,55.15
2022-12-17T02:58:35.309Z,54.96
2022-12-17T02:59:35.312Z,54.68
2022-12-17T03:00:35.381Z,55.06
2022-12-17T03:01:35.651Z,55.15
2022-12-17T03:02:35.707Z,55.15
2022-12-17T03:03:35.929Z,54.71
2022-12-17T03:04:35.378Z,54.96
2022-12-17T03:05:47.698Z,54.99
2022-12-17T03:06:35.146Z,55.25
2022-12-17T03:07:35.419Z,55.27
2022-12-17T03:08:35.441Z,55.15
2022-12-17T03:09:35.443Z,55.15
2022-12-17T03:10:35.469Z,55.15
2022-12-17T03:11:35.474Z,55.06
2022-12-17T03:12:35.826Z,55.06
2022-12-17T03:13:36.282Z,55.34
2022-12-17T03:14:35.502Z,55.25
2022-12-17T03:15:35.519Z,55.34
2022-12-17T03:16:40.229Z,55.25
2022-12-17T03:17:35.287Z,55.15
2022-12-17T03:18:35.561Z,55.25
2022-12-17T03:19:35.566Z,55.25
2022-12-17T03:20:35.481Z,55.15
2022-12-17T03:21:35.594Z,55.06
2022-12-17T03:22:35.608Z,55.15
2022-12-17T03:23:36.694Z,55.15
2022-12-17T03:24:35.634Z,55.34
2022-12-17T03:25:35.377Z,54.96
2022-12-17T03:26:35.653Z,54.96
2022-12-17T03:27:35.667Z,55.44
2022-12-17T03:28:35.681Z,55.25
2022-12-17T03:29:35.694Z,55.63
2022-12-17T03:30:39.211Z,54.96
2022-12-17T03:31:35.814Z,55.44
2022-12-17T03:32:35.799Z,55.63
2022-12-17T03:33:36.391Z,55.72
2022-12-17T03:34:35.755Z,55.53
2022-12-17T03:35:35.765Z,55.44
2022-12-17T03:36:35.784Z,55.44
2022-12-17T03:37:35.529Z,55.44
2022-12-17T03:38:35.809Z,55.44
2022-12-17T03:39:35.820Z,55.53
2022-12-17T03:40:35.567Z,55.44
2022-12-17T03:41:35.574Z,55.34
2022-12-17T03:42:35.853Z,55.34
2022-12-17T03:43:36.575Z,55.44
2022-12-17T03:44:35.880Z,55.34
2022-12-17T03:45:35.930Z,55.44
2022-12-17T03:46:36.048Z,55.53
2022-12-17T03:47:35.915Z,55.44
2022-12-17T03:48:35.974Z,55.72
2022-12-17T03:49:35.946Z,55.72
2022-12-17T03:50:35.689Z,55.53
2022-12-17T03:51:35.704Z,55.63
2022-12-17T03:52:35.971Z,55.44
2022-12-17T03:53:36.714Z,55.34
2022-12-17T03:54:35.991Z,55.34
2022-12-17T03:55:36.019Z,55.34
2022-12-17T03:56:36.021Z,55.34
2022-12-17T03:57:36.039Z,55.34
2022-12-17T03:58:36.049Z,55.91
2022-12-17T03:59:35.806Z,55.72
2022-12-17T04:00:36.069Z,55.72
2022-12-17T04:01:36.300Z,55.44
2022-12-17T04:02:36.308Z,55.44
2022-12-17T04:03:36.991Z,55.53
2022-12-17T04:04:36.166Z,55.82
2022-12-17T04:05:36.135Z,55.53
2022-12-17T04:06:35.900Z,55.63
2022-12-17T04:07:36.155Z,55.53
2022-12-17T04:08:35.908Z,55.72
2022-12-17T04:09:36.181Z,55.53
2022-12-17T04:10:36.193Z,55.53
2022-12-17T04:11:36.208Z,55.63
2022-12-17T04:12:36.617Z,55.63
2022-12-17T04:13:43.252Z,55.53
2022-12-17T04:14:35.977Z,55.53
2022-12-17T04:15:36.401Z,55.53
2022-12-17T04:16:36.260Z,55.63
2022-12-17T04:17:36.285Z,55.91
2022-12-17T04:18:36.294Z,55.53
2022-12-17T04:19:36.303Z,55.53
2022-12-17T04:20:36.373Z,55.91
2022-12-17T04:21:36.322Z,55.91
2022-12-17T04:22:36.333Z,55.63
2022-12-17T04:23:37.058Z,55.34
2022-12-17T04:24:36.371Z,55.72
2022-12-17T04:25:36.115Z,55.53
2022-12-17T04:26:36.416Z,55.72
2022-12-17T04:27:36.399Z,55.44
2022-12-17T04:28:36.158Z,55.53
2022-12-17T04:29:36.421Z,55.53
2022-12-17T04:30:36.431Z,55.91
2022-12-17T04:31:36.667Z,55.44
2022-12-17T04:32:37.849Z,55.63
2022-12-17T04:33:36.941Z,55.53
2022-12-17T04:34:36.227Z,55.82
2022-12-17T04:35:36.241Z,55.63
2022-12-17T04:36:36.560Z,55.63
2022-12-17T04:37:36.534Z,55.82
2022-12-17T04:38:36.272Z,55.63
2022-12-17T04:39:36.552Z,55.44
2022-12-17T04:40:36.561Z,55.72
2022-12-17T04:41:36.569Z,55.63
2022-12-17T04:42:36.324Z,55.53
2022-12-17T04:43:37.142Z,55.63
2022-12-17T04:44:36.606Z,55.44
2022-12-17T04:45:36.616Z,55.53
2022-12-17T04:46:36.748Z,55.82
2022-12-17T04:47:36.375Z,55.44
2022-12-17T04:48:36.393Z,55.44
2022-12-17T04:49:36.669Z,55.34
2022-12-17T04:50:36.685Z,55.44
2022-12-17T04:51:36.689Z,55.44
2022-12-17T04:52:36.821Z,55.44
2022-12-17T04:53:37.613Z,55.41
2022-12-17T04:54:36.461Z,55.53
2022-12-17T04:55:36.740Z,55.41
2022-12-17T04:56:36.765Z,55.31
2022-12-17T04:57:36.763Z,55.34
2022-12-17T04:58:36.776Z,55.31
2022-12-17T04:59:36.783Z,55.41
2022-12-17T05:00:36.800Z,55.31
2022-12-17T05:01:36.741Z,55.41
2022-12-17T05:02:42.866Z,55.41
2022-12-17T05:03:37.928Z,55.5
2022-12-17T05:04:36.585Z,55.6
2022-12-17T05:05:36.599Z,55.5
2022-12-17T05:06:36.871Z,55.41
2022-12-17T05:07:36.882Z,55.41
2022-12-17T05:08:42.174Z,55.41
2022-12-17T05:09:36.642Z,55.31
2022-12-17T05:10:36.912Z,55.31
2022-12-17T05:11:36.939Z,55.6
2022-12-17T05:12:36.886Z,55.41
2022-12-17T05:13:37.506Z,55.6
2022-12-17T05:14:36.708Z,55.69
2022-12-17T05:15:37.083Z,55.41
2022-12-17T05:16:37.033Z,55.41
2022-12-17T05:17:36.743Z,55.6
2022-12-17T05:18:37.018Z,55.6
2022-12-17T05:19:37.027Z,55.41
2022-12-17T05:20:37.051Z,55.03
2022-12-17T05:21:37.059Z,54.93
2022-12-17T05:22:36.799Z,55.12
2022-12-17T05:23:37.860Z,55.22
2022-12-17T05:24:37.160Z,55.22
2022-12-17T05:25:37.098Z,54.93
2022-12-17T05:26:36.852Z,55.5
2022-12-17T05:27:37.125Z,55.5
2022-12-17T05:28:37.132Z,55.41
2022-12-17T05:29:36.896Z,55.41
2022-12-17T05:30:37.191Z,55.5
2022-12-17T05:31:37.063Z,55.22
2022-12-17T05:32:36.923Z,55.41
2022-12-17T05:33:38.123Z,55.41
2022-12-17T05:34:36.942Z,55.31
2022-12-17T05:35:37.215Z,55.31
2022-12-17T05:36:37.228Z,55.22
2022-12-17T05:37:37.243Z,55.31
2022-12-17T05:38:37.254Z,55.22
2022-12-17T05:39:37.002Z,55.22
2022-12-17T05:40:37.331Z,55.22
2022-12-17T05:41:37.296Z,55.03
2022-12-17T05:42:37.292Z,55.22
2022-12-17T05:43:38.014Z,55.12
2022-12-17T05:44:37.069Z,54.93
2022-12-17T05:45:37.337Z,55.03
2022-12-17T05:46:37.221Z,55.03
2022-12-17T05:47:37.104Z,55.12
2022-12-17T05:48:37.110Z,55.31
2022-12-17T05:49:37.387Z,55.22
2022-12-17T05:50:37.394Z,55.31
2022-12-17T05:51:40.978Z,55.12
2022-12-17T05:52:37.420Z,55.03
2022-12-17T05:53:38.471Z,55.03
2022-12-17T05:54:37.440Z,55.12
2022-12-17T05:55:37.197Z,55.12
2022-12-17T05:56:37.510Z,55.03
2022-12-17T05:57:37.482Z,54.84
2022-12-17T05:58:37.490Z,54.93
2022-12-17T05:59:37.239Z,55.12
2022-12-17T06:00:37.251Z,55.12
2022-12-17T06:01:37.633Z,55.12
2022-12-17T06:02:37.744Z,54.84
2022-12-17T06:03:38.846Z,55.03
2022-12-17T06:04:37.561Z,55.12
2022-12-17T06:05:37.579Z,55.03
2022-12-17T06:06:37.324Z,55.12
2022-12-17T06:07:37.588Z,54.84
2022-12-17T06:08:37.611Z,55.12
2022-12-17T06:09:37.615Z,55.22
2022-12-17T06:10:37.631Z,55.12
2022-12-17T06:11:37.651Z,55.03
2022-12-17T06:12:37.925Z,55.03
2022-12-17T06:13:38.296Z,55.03
2022-12-17T06:14:37.672Z,54.55
2022-12-17T06:15:37.423Z,54.74
2022-12-17T06:16:37.682Z,55.03
2022-12-17T06:17:37.708Z,54.65
2022-12-17T06:18:37.720Z,54.65
2022-12-17T06:19:37.732Z,54.65
2022-12-17T06:20:37.748Z,54.74
2022-12-17T06:21:37.753Z,54.55
2022-12-17T06:22:37.768Z,54.46
2022-12-17T06:23:38.337Z,54.65
2022-12-17T06:24:41.360Z,54.46
2022-12-17T06:25:37.540Z,54.84
2022-12-17T06:26:37.814Z,54.55
2022-12-17T06:27:37.824Z,54.55
2022-12-17T06:28:37.908Z,54.46
2022-12-17T06:29:37.854Z,54.65
2022-12-17T06:30:37.882Z,54.74
2022-12-17T06:31:38.007Z,54.46
2022-12-17T06:32:37.890Z,54.65
2022-12-17T06:33:38.764Z,54.46
2022-12-17T06:34:37.911Z,54.55
2022-12-17T06:35:37.921Z,54.74
2022-12-17T06:36:37.930Z,54.46
2022-12-17T06:37:37.939Z,54.74
2022-12-17T06:38:37.957Z,55.22
2022-12-17T06:39:37.703Z,54.84
2022-12-17T06:40:37.716Z,54.46
2022-12-17T06:41:37.727Z,55.03
2022-12-17T06:42:38.004Z,54.74
2022-12-17T06:43:38.693Z,54.84
2022-12-17T06:44:38.154Z,54.84
2022-12-17T06:45:37.776Z,54.93
2022-12-17T06:46:38.156Z,54.65
2022-12-17T06:47:37.801Z,54.93
2022-12-17T06:48:37.810Z,54.93
2022-12-17T06:49:38.076Z,54.93
2022-12-17T06:50:38.098Z,54.84
2022-12-17T06:51:37.839Z,54.93
2022-12-17T06:52:37.859Z,54.84
2022-12-17T06:53:39.006Z,54.84
2022-12-17T06:54:38.142Z,55.03
2022-12-17T06:55:38.150Z,55.03
2022-12-17T06:56:37.903Z,54.84
2022-12-17T06:57:47.483Z,55.03
2022-12-17T06:58:37.932Z,54.93
2022-12-17T06:59:38.197Z,55.03
2022-12-17T07:00:38.387Z,54.65
2022-12-17T07:01:38.693Z,55.03
2022-12-17T07:02:38.579Z,54.55
2022-12-17T07:03:39.039Z,55
2022-12-17T07:04:38.262Z,54.55
2022-12-17T07:05:38.276Z,54.84
2022-12-17T07:06:38.277Z,55.03
2022-12-17T07:07:38.306Z,54.62
2022-12-17T07:08:38.298Z,54.72
2022-12-17T07:09:38.320Z,54.81
2022-12-17T07:10:38.327Z,54.72
2022-12-17T07:11:38.433Z,54.72
2022-12-17T07:12:38.692Z,55.1
2022-12-17T07:13:39.389Z,54.53
2022-12-17T07:14:38.372Z,54.44
2022-12-17T07:15:38.387Z,54.44
2022-12-17T07:16:38.675Z,54.72
2022-12-17T07:17:38.146Z,54.53
2022-12-17T07:18:38.480Z,54.44
2022-12-17T07:19:38.426Z,54.72
2022-12-17T07:20:38.434Z,54.72
2022-12-17T07:21:38.456Z,54.53
2022-12-17T07:22:38.462Z,54.81
2022-12-17T07:23:39.228Z,54.62
2022-12-17T07:24:38.229Z,54.53
2022-12-17T07:25:41.597Z,55.1
2022-12-17T07:26:38.512Z,54.53
2022-12-17T07:27:38.524Z,54.81
2022-12-17T07:28:38.274Z,54.81
2022-12-17T07:29:38.290Z,54.62
2022-12-17T07:30:38.557Z,54.34
2022-12-17T07:31:38.758Z,54.25
2022-12-17T07:32:38.640Z,54.44
2022-12-17T07:33:39.224Z,54.44
2022-12-17T07:34:38.600Z,54.25
2022-12-17T07:35:38.618Z,54.15
2022-12-17T07:36:38.627Z,54.25
2022-12-17T07:37:38.646Z,54.25
2022-12-17T07:38:38.649Z,54.53
2022-12-17T07:39:38.398Z,54.25
2022-12-17T07:40:38.675Z,54.15
2022-12-17T07:41:38.686Z,54.25
2022-12-17T07:42:38.432Z,54.15
2022-12-17T07:43:39.750Z,54.15
2022-12-17T07:44:38.715Z,53.96
2022-12-17T07:45:38.871Z,54.06
2022-12-17T07:46:38.485Z,54.06
2022-12-17T07:47:38.752Z,54.15
2022-12-17T07:48:38.878Z,54.15
2022-12-17T07:49:38.772Z,53.96
2022-12-17T07:50:38.514Z,54.25
2022-12-17T07:51:38.793Z,53.96
2022-12-17T07:52:38.812Z,53.96
2022-12-17T07:53:39.475Z,53.96
2022-12-17T07:54:38.822Z,54.25
2022-12-17T07:55:38.842Z,53.87
2022-12-17T07:56:38.854Z,54.15
2022-12-17T07:57:38.864Z,53.87
2022-12-17T07:58:38.875Z,53.87
2022-12-17T07:59:38.884Z,54.15
2022-12-17T08:00:38.897Z,53.96
2022-12-17T08:01:38.918Z,54.06
2022-12-17T08:02:39.424Z,53.96
2022-12-17T08:03:39.856Z,54.06
2022-12-17T08:04:39.002Z,53.96
2022-12-17T08:05:38.699Z,54.06
2022-12-17T08:06:38.964Z,53.87
2022-12-17T08:07:38.985Z,53.77
2022-12-17T08:08:39.220Z,53.96
2022-12-17T08:09:39.004Z,54.15
2022-12-17T08:10:39.011Z,54.06
2022-12-17T08:11:39.030Z,54.06
2022-12-17T08:12:39.489Z,54.06
2022-12-17T08:13:39.732Z,54.34
2022-12-17T08:14:38.797Z,54.06
2022-12-17T08:15:39.092Z,53.87
2022-12-17T08:16:39.261Z,54.25
2022-12-17T08:17:39.142Z,54.15
2022-12-17T08:18:38.842Z,53.96
2022-12-17T08:19:39.109Z,54.25
2022-12-17T08:20:39.174Z,54.25
2022-12-17T08:21:38.879Z,54.25
2022-12-17T08:22:38.886Z,54.25
2022-12-17T08:23:39.815Z,54.25
2022-12-17T08:24:38.912Z,54.25
2022-12-17T08:25:39.181Z,54.25
2022-12-17T08:26:42.077Z,54.15
2022-12-17T08:27:38.946Z,54.25
2022-12-17T08:28:54.572Z,54.15
2022-12-17T08:29:39.225Z,54.44
2022-12-17T08:30:39.146Z,54.34
2022-12-17T08:31:39.001Z,54.44
2022-12-17T08:32:39.272Z,54.15
2022-12-17T08:33:39.736Z,54.15
2022-12-17T08:34:39.294Z,54.25
2022-12-17T08:35:39.292Z,54.25
2022-12-17T08:36:39.353Z,54.15
2022-12-17T08:37:39.320Z,54.06
2022-12-17T08:38:39.070Z,54.15
2022-12-17T08:39:39.078Z,54.15
2022-12-17T08:40:39.362Z,54.15
2022-12-17T08:41:39.103Z,54.25
2022-12-17T08:42:39.119Z,53.96
2022-12-17T08:43:39.888Z,53.96
2022-12-17T08:44:39.396Z,54.25
2022-12-17T08:45:39.241Z,54.34
2022-12-17T08:46:39.428Z,54.15
2022-12-17T08:47:39.442Z,54.15
2022-12-17T08:48:39.437Z,54.25
2022-12-17T08:49:39.457Z,54.25
2022-12-17T08:50:39.209Z,54.25
2022-12-17T08:51:39.482Z,54.34
2022-12-17T08:52:39.543Z,54.34
2022-12-17T08:53:40.456Z,54.44
2022-12-17T08:54:39.253Z,54.62
2022-12-17T08:55:39.273Z,54.06
2022-12-17T08:56:39.533Z,54.25
2022-12-17T08:57:39.289Z,54.34
2022-12-17T08:58:39.554Z,54.62
2022-12-17T08:59:39.580Z,54.62
2022-12-17T09:00:39.576Z,54.34
2022-12-17T09:01:39.843Z,54.34
2022-12-17T09:02:39.845Z,54.72
2022-12-17T09:03:40.659Z,54.62
2022-12-17T09:04:39.642Z,54.62
2022-12-17T09:05:39.643Z,54.62
2022-12-17T09:06:41.608Z,54.62
2022-12-17T09:07:39.653Z,54.72
2022-12-17T09:08:39.720Z,54.44
2022-12-17T09:09:39.682Z,54.62
2022-12-17T09:10:39.688Z,54.81
2022-12-17T09:11:39.712Z,54.81
2022-12-17T09:12:40.065Z,54.91
2022-12-17T09:13:40.220Z,54.81
2022-12-17T09:14:39.530Z,54.91
2022-12-17T09:15:39.752Z,54.81
2022-12-17T09:16:39.861Z,54.53
2022-12-17T09:17:39.771Z,55
2022-12-17T09:18:39.519Z,54.81
2022-12-17T09:19:39.792Z,54.91
2022-12-17T09:20:39.544Z,54.91
2022-12-17T09:21:39.560Z,55.1
2022-12-17T09:22:39.825Z,54.81
2022-12-17T09:23:40.312Z,54.91
2022-12-17T09:24:39.969Z,54.62
2022-12-17T09:25:39.859Z,54.72
2022-12-17T09:26:39.866Z,55.1
2022-12-17T09:27:39.633Z,54.72
2022-12-17T09:28:39.634Z,54.72
2022-12-17T09:29:39.901Z,54.62
2022-12-17T09:30:40.008Z,54.72
2022-12-17T09:31:40.325Z,54.53
2022-12-17T09:32:39.672Z,54.44
2022-12-17T09:33:40.637Z,54.53
2022-12-17T09:34:39.956Z,54.53
2022-12-17T09:35:39.987Z,54.53
2022-12-17T09:36:39.719Z,54.72
2022-12-17T09:37:39.995Z,54.53
2022-12-17T09:38:39.749Z,55
2022-12-17T09:39:40.018Z,54.81
2022-12-17T09:40:40.129Z,55.1
2022-12-17T09:41:39.783Z,55.1
2022-12-17T09:42:40.055Z,55.1
2022-12-17T09:43:40.353Z,55
2022-12-17T09:44:39.813Z,55.1
2022-12-17T09:45:39.825Z,55.1
2022-12-17T09:46:40.020Z,55.38
2022-12-17T09:47:39.850Z,55.19
2022-12-17T09:48:40.120Z,55
2022-12-17T09:49:40.127Z,55.19
2022-12-17T09:50:39.879Z,55.19
2022-12-17T09:51:39.895Z,55.19
2022-12-17T09:52:39.903Z,55
2022-12-17T09:53:40.400Z,55.29
2022-12-17T09:54:40.180Z,55.1
2022-12-17T09:55:40.193Z,55.57
2022-12-17T09:56:40.252Z,55.38
2022-12-17T09:57:40.224Z,55.38
2022-12-17T09:58:40.222Z,55.38
2022-12-17T09:59:40.239Z,55.29
2022-12-17T10:00:40.013Z,55.38
2022-12-17T10:01:40.284Z,55.57
2022-12-17T10:02:40.611Z,55.85
2022-12-17T10:03:41.398Z,55.38
2022-12-17T10:04:40.297Z,55.38
2022-12-17T10:05:40.041Z,55.57
2022-12-17T10:06:40.322Z,55.57
2022-12-17T10:07:40.066Z,55.66
2022-12-17T10:08:40.341Z,55.57
2022-12-17T10:09:40.345Z,54.91
2022-12-17T10:10:40.360Z,55.29
2022-12-17T10:11:40.368Z,55.29
2022-12-17T10:12:40.630Z,55.19
2022-12-17T10:13:40.831Z,55.19
2022-12-17T10:14:40.403Z,55.19
2022-12-17T10:15:40.590Z,55.66
2022-12-17T10:16:40.432Z,55.47
2022-12-17T10:17:40.444Z,55.57
2022-12-17T10:18:40.188Z,55.66
2022-12-17T10:19:40.454Z,55.29
2022-12-17T10:20:40.211Z,55.57
2022-12-17T10:21:40.479Z,55.19
2022-12-17T10:22:42.040Z,55.38
2022-12-17T10:23:41.101Z,55.57
2022-12-17T10:24:40.257Z,55.57
2022-12-17T10:25:40.529Z,55.94
2022-12-17T10:26:40.545Z,55.85
2022-12-17T10:27:40.290Z,55.57
2022-12-17T10:28:40.610Z,55.76
2022-12-17T10:29:48.334Z,55.85
2022-12-17T10:30:40.752Z,55.94
2022-12-17T10:31:40.695Z,55.94
2022-12-17T10:32:40.608Z,56.04
2022-12-17T10:33:40.991Z,56.04
2022-12-17T10:34:40.629Z,56.13
2022-12-17T10:35:40.381Z,56.23
2022-12-17T10:36:40.653Z,56.23
2022-12-17T10:37:40.400Z,55.85
2022-12-17T10:38:40.668Z,55.85
2022-12-17T10:39:40.426Z,55.85
2022-12-17T10:40:40.696Z,55.85
2022-12-17T10:41:40.703Z,55.85
2022-12-17T10:42:40.707Z,55.85
2022-12-17T10:43:40.862Z,56.23
2022-12-17T10:44:40.807Z,56.23
2022-12-17T10:45:40.784Z,56.23
2022-12-17T10:46:40.908Z,56.04
2022-12-17T10:47:40.508Z,56.23
2022-12-17T10:48:40.518Z,56.13
2022-12-17T10:49:40.820Z,56.7
2022-12-17T10:50:40.816Z,56.61
2022-12-17T10:51:40.827Z,56.51
2022-12-17T10:52:40.566Z,56.51
2022-12-17T10:53:41.486Z,56.32
2022-12-17T10:54:45.363Z,56.8
2022-12-17T10:55:40.857Z,56.42
2022-12-17T10:56:40.869Z,56.42
2022-12-17T10:57:40.618Z,56.32
2022-12-17T10:58:40.887Z,56.32
2022-12-17T10:59:40.648Z,56.42
2022-12-17T11:00:45.799Z,56.51
2022-12-17T11:01:41.228Z,56.23
2022-12-17T11:02:41.444Z,56.42
2022-12-17T11:03:41.342Z,56.99
2022-12-17T11:04:40.957Z,56.89
2022-12-17T11:05:40.969Z,56.89
2022-12-17T11:06:44.952Z,56.89
2022-12-17T11:07:40.996Z,56.61
2022-12-17T11:08:41.403Z,56.8
2022-12-17T11:09:41.017Z,56.61
2022-12-17T11:10:40.765Z,56.99
2022-12-17T11:11:41.035Z,56.89
2022-12-17T11:12:41.348Z,56.99
2022-12-17T11:13:41.673Z,56.51
2022-12-17T11:14:41.069Z,56.7
2022-12-17T11:15:40.890Z,56.8
2022-12-17T11:16:41.139Z,56.7
2022-12-17T11:17:41.097Z,56.89
2022-12-17T11:18:40.847Z,57.08
2022-12-17T11:19:41.126Z,56.89
2022-12-17T11:20:40.873Z,56.89
2022-12-17T11:21:41.146Z,57.18
2022-12-17T11:22:40.905Z,57.08
2022-12-17T11:23:41.750Z,57.27
2022-12-17T11:24:41.174Z,57.27
2022-12-17T11:25:41.193Z,57.65
2022-12-17T11:26:40.939Z,57.37
2022-12-17T11:27:41.219Z,57.46
2022-12-17T11:28:40.964Z,57.46
2022-12-17T11:29:41.230Z,57.46
2022-12-17T11:30:41.253Z,57.46
2022-12-17T11:31:41.225Z,57.46
2022-12-17T11:32:41.317Z,57.46
2022-12-17T11:33:41.695Z,57.46
2022-12-17T11:34:41.292Z,57.27
2022-12-17T11:35:41.048Z,56.89
2022-12-17T11:36:41.826Z,57.18
2022-12-17T11:37:41.317Z,57.08
2022-12-17T11:38:41.404Z,57.27
2022-12-17T11:39:41.347Z,57.18
2022-12-17T11:40:41.363Z,57.18
2022-12-17T11:41:41.364Z,57.27
2022-12-17T11:42:41.381Z,57.37
2022-12-17T11:43:41.385Z,57.74
2022-12-17T11:44:41.397Z,57.84
2022-12-17T11:45:41.416Z,57.93
2022-12-17T11:46:41.323Z,57.65
2022-12-17T11:47:41.175Z,57.55
2022-12-17T11:48:42.115Z,57.84
2022-12-17T11:49:41.192Z,57.55
2022-12-17T11:50:41.212Z,57.93
2022-12-17T11:51:41.221Z,57.65
2022-12-17T11:52:41.497Z,57.55
2022-12-17T11:53:41.239Z,57.84
2022-12-17T11:54:41.253Z,57.84
2022-12-17T11:55:41.513Z,58.03
2022-12-17T11:56:41.561Z,57.93
2022-12-17T11:57:41.562Z,57.93
2022-12-17T11:58:41.976Z,57.84
2022-12-17T11:59:41.564Z,58.03
2022-12-17T12:00:41.599Z,58.4
2022-12-17T12:01:41.426Z,58.22
2022-12-17T12:02:41.509Z,58.12
2022-12-17T12:03:41.880Z,58.12
2022-12-17T12:04:41.676Z,58.31
2022-12-17T12:05:41.629Z,58.22
2022-12-17T12:06:41.392Z,58.31
2022-12-17T12:07:41.666Z,58.12
2022-12-17T12:08:42.198Z,58.03
2022-12-17T12:09:41.673Z,58.03
2022-12-17T12:10:41.693Z,58.03
2022-12-17T12:11:41.440Z,57.84
2022-12-17T12:12:41.918Z,57.84
2022-12-17T12:13:41.723Z,57.84
2022-12-17T12:14:41.732Z,58.03
2022-12-17T12:15:41.751Z,58.03
2022-12-17T12:16:46.432Z,58.12
2022-12-17T12:17:41.773Z,58.31
2022-12-17T12:18:42.070Z,58.4
2022-12-17T12:19:41.794Z,58.5
2022-12-17T12:20:41.844Z,58.31
2022-12-17T12:21:41.550Z,58.59
2022-12-17T12:22:41.817Z,58.22
2022-12-17T12:23:41.838Z,58.22
2022-12-17T12:24:41.840Z,58.22
2022-12-17T12:25:41.856Z,58.5
2022-12-17T12:26:41.869Z,58.5
2022-12-17T12:27:45.164Z,58.69
2022-12-17T12:28:42.116Z,58.4
2022-12-17T12:29:41.903Z,58.78
2022-12-17T12:30:41.904Z,58.69
2022-12-17T12:31:42.100Z,58.59
2022-12-17T12:32:41.928Z,58.69
2022-12-17T12:33:41.973Z,58.69
2022-12-17T12:34:41.958Z,58.87
2022-12-17T12:35:41.971Z,58.5
2022-12-17T12:36:42.032Z,58.4
2022-12-17T12:37:41.990Z,58.59
2022-12-17T12:38:48.681Z,58.22
2022-12-17T12:39:42.009Z,58.59
2022-12-17T12:40:41.766Z,59.35
2022-12-17T12:41:42.034Z,59.25
2022-12-17T12:42:42.086Z,59.06
2022-12-17T12:43:42.057Z,59.06
2022-12-17T12:44:43.848Z,59.35
2022-12-17T12:45:41.988Z,59.35
2022-12-17T12:46:42.098Z,59.54
2022-12-17T12:47:42.099Z,59.16
2022-12-17T12:48:42.502Z,59.16
2022-12-17T12:49:42.123Z,59.06
2022-12-17T12:50:42.129Z,59.16
2022-12-17T12:51:42.144Z,59.06
2022-12-17T12:52:42.210Z,59.16
2022-12-17T12:53:41.906Z,59.54
2022-12-17T12:54:41.916Z,59.35
2022-12-17T12:55:42.195Z,59.44